sensor_id;sensor_type;location;lat;lon;timestamp;P1;durP1;ratioP1;P2;durP2;ratioP2
52764;SDS011;38650;44.536;18.664;2024-03-08T00:00:40;4.53;;;4.20;;
52764;SDS011;38650;44.536;18.664;2024-03-08T00:03:08;4.35;;;3.95;;
52764;SDS011;38650;44.536;18.664;2024-03-08T00:05:35;4.97;;;4.53;;
52764;SDS011;38650;44.536;18.664;2024-03-08T00:08:02;5.18;;;4.68;;
52764;SDS011;38650;44.536;18.664;2024-03-08T00:10:28;4.88;;;4.47;;
52764;SDS011;38650;44.536;18.664;2024-03-08T00:12:54;7.32;;;6.63;;
52764;SDS011;38650;44.536;18.664;2024-03-08T00:15:20;9.55;;;8.60;;
52764;SDS011;38650;44.536;18.664;2024-03-08T00:17:48;7.03;;;6.43;;
52764;SDS011;38650;44.536;18.664;2024-03-08T00:20:14;10.02;;;9.13;;
52764;SDS011;38650;44.536;18.664;2024-03-08T00:22:42;9.75;;;8.85;;
52764;SDS011;38650;44.536;18.664;2024-03-08T00:25:09;11.48;;;10.38;;
52764;SDS011;38650;44.536;18.664;2024-03-08T00:27:35;12.18;;;10.98;;
52764;SDS011;38650;44.536;18.664;2024-03-08T00:30:01;12.68;;;11.38;;
52764;SDS011;38650;44.536;18.664;2024-03-08T00:32:27;11.15;;;9.98;;
52764;SDS011;38650;44.536;18.664;2024-03-08T00:34:53;15.02;;;13.50;;
52764;SDS011;38650;44.536;18.664;2024-03-08T00:37:22;15.43;;;13.82;;
52764;SDS011;38650;44.536;18.664;2024-03-08T00:39:51;17.40;;;15.63;;
52764;SDS011;38650;44.536;18.664;2024-03-08T00:42:18;15.77;;;13.93;;
52764;SDS011;38650;44.536;18.664;2024-03-08T00:44:44;15.13;;;13.60;;
52764;SDS011;38650;44.536;18.664;2024-03-08T00:47:10;15.07;;;13.57;;
52764;SDS011;38650;44.536;18.664;2024-03-08T00:49:36;13.45;;;12.05;;
52764;SDS011;38650;44.536;18.664;2024-03-08T00:52:03;17.92;;;15.52;;
52764;SDS011;38650;44.536;18.664;2024-03-08T00:54:33;21.75;;;18.92;;
52764;SDS011;38650;44.536;18.664;2024-03-08T00:57:02;17.75;;;15.15;;
52764;SDS011;38650;44.536;18.664;2024-03-08T00:59:31;16.40;;;14.65;;
52764;SDS011;38650;44.536;18.664;2024-03-08T01:01:57;24.70;;;20.00;;
52764;SDS011;38650;44.536;18.664;2024-03-08T01:04:25;16.38;;;14.52;;
52764;SDS011;38650;44.536;18.664;2024-03-08T01:06:53;17.77;;;15.82;;
52764;SDS011;38650;44.536;18.664;2024-03-08T01:09:21;15.18;;;13.57;;
52764;SDS011;38650;44.536;18.664;2024-03-08T01:11:47;14.68;;;13.18;;
52764;SDS011;38650;44.536;18.664;2024-03-08T01:14:13;13.38;;;11.98;;
52764;SDS011;38650;44.536;18.664;2024-03-08T01:16:39;15.10;;;12.90;;
52764;SDS011;38650;44.536;18.664;2024-03-08T01:19:04;13.27;;;11.98;;
52764;SDS011;38650;44.536;18.664;2024-03-08T01:21:30;15.63;;;14.02;;
52764;SDS011;38650;44.536;18.664;2024-03-08T01:23:56;13.55;;;12.23;;
52764;SDS011;38650;44.536;18.664;2024-03-08T01:26:21;12.65;;;11.32;;
52764;SDS011;38650;44.536;18.664;2024-03-08T01:28:47;13.05;;;11.68;;
52764;SDS011;38650;44.536;18.664;2024-03-08T01:31:14;11.35;;;10.25;;
52764;SDS011;38650;44.536;18.664;2024-03-08T01:33:41;12.27;;;10.98;;
52764;SDS011;38650;44.536;18.664;2024-03-08T01:36:06;10.82;;;9.73;;
52764;SDS011;38650;44.536;18.664;2024-03-08T01:38:32;9.82;;;8.82;;
52764;SDS011;38650;44.536;18.664;2024-03-08T01:40:58;8.73;;;7.93;;
52764;SDS011;38650;44.536;18.664;2024-03-08T01:43:28;9.25;;;8.30;;
52764;SDS011;38650;44.536;18.664;2024-03-08T01:45:54;12.02;;;10.73;;
52764;SDS011;38650;44.536;18.664;2024-03-08T01:48:22;12.27;;;10.80;;
52764;SDS011;38650;44.536;18.664;2024-03-08T01:50:49;11.35;;;9.25;;
52764;SDS011;38650;44.536;18.664;2024-03-08T01:53:17;12.13;;;10.57;;
52764;SDS011;38650;44.536;18.664;2024-03-08T01:55:47;9.95;;;8.57;;
52764;SDS011;38650;44.536;18.664;2024-03-08T01:58:13;8.10;;;7.30;;
52764;SDS011;38650;44.536;18.664;2024-03-08T02:00:43;8.10;;;7.30;;
52764;SDS011;38650;44.536;18.664;2024-03-08T02:03:11;9.27;;;8.40;;
52764;SDS011;38650;44.536;18.664;2024-03-08T02:05:38;16.13;;;14.43;;
52764;SDS011;38650;44.536;18.664;2024-03-08T02:08:06;15.15;;;13.55;;
52764;SDS011;38650;44.536;18.664;2024-03-08T02:10:33;22.67;;;14.93;;
52764;SDS011;38650;44.536;18.664;2024-03-08T02:12:59;18.42;;;16.35;;
52764;SDS011;38650;44.536;18.664;2024-03-08T02:15:49;17.23;;;15.43;;
52764;SDS011;38650;44.536;18.664;2024-03-08T02:18:20;19.65;;;17.55;;
52764;SDS011;38650;44.536;18.664;2024-03-08T02:20:47;17.98;;;16.00;;
52764;SDS011;38650;44.536;18.664;2024-03-08T02:23:17;20.80;;;17.67;;
52764;SDS011;38650;44.536;18.664;2024-03-08T02:25:46;20.85;;;18.48;;
52764;SDS011;38650;44.536;18.664;2024-03-08T02:28:13;21.30;;;19.00;;
52764;SDS011;38650;44.536;18.664;2024-03-08T02:30:39;21.52;;;18.83;;
52764;SDS011;38650;44.536;18.664;2024-03-08T02:33:05;19.65;;;17.52;;
52764;SDS011;38650;44.536;18.664;2024-03-08T02:35:32;19.40;;;17.33;;
52764;SDS011;38650;44.536;18.664;2024-03-08T02:37:58;20.27;;;18.17;;
52764;SDS011;38650;44.536;18.664;2024-03-08T02:40:24;20.75;;;18.55;;
52764;SDS011;38650;44.536;18.664;2024-03-08T02:42:50;21.55;;;19.17;;
52764;SDS011;38650;44.536;18.664;2024-03-08T02:45:16;19.50;;;17.35;;
52764;SDS011;38650;44.536;18.664;2024-03-08T02:47:42;19.35;;;17.35;;
52764;SDS011;38650;44.536;18.664;2024-03-08T02:50:08;17.23;;;15.30;;
52764;SDS011;38650;44.536;18.664;2024-03-08T02:52:34;13.63;;;12.23;;
52764;SDS011;38650;44.536;18.664;2024-03-08T02:55:00;15.32;;;13.77;;
52764;SDS011;38650;44.536;18.664;2024-03-08T02:57:31;18.05;;;16.10;;
52764;SDS011;38650;44.536;18.664;2024-03-08T02:59:57;16.13;;;14.52;;
52764;SDS011;38650;44.536;18.664;2024-03-08T03:02:24;18.00;;;16.10;;
52764;SDS011;38650;44.536;18.664;2024-03-08T03:04:51;17.60;;;14.57;;
52764;SDS011;38650;44.536;18.664;2024-03-08T03:07:17;15.45;;;13.85;;
52764;SDS011;38650;44.536;18.664;2024-03-08T03:09:44;16.13;;;14.50;;
52764;SDS011;38650;44.536;18.664;2024-03-08T03:12:10;16.10;;;14.50;;
52764;SDS011;38650;44.536;18.664;2024-03-08T03:14:36;15.82;;;13.93;;
52764;SDS011;38650;44.536;18.664;2024-03-08T03:17:04;16.95;;;14.63;;
52764;SDS011;38650;44.536;18.664;2024-03-08T03:19:30;14.35;;;12.57;;
52764;SDS011;38650;44.536;18.664;2024-03-08T03:21:56;18.48;;;15.80;;
52764;SDS011;38650;44.536;18.664;2024-03-08T03:24:22;18.45;;;15.18;;
52764;SDS011;38650;44.536;18.664;2024-03-08T03:26:48;16.27;;;14.40;;
52764;SDS011;38650;44.536;18.664;2024-03-08T03:29:14;14.65;;;13.18;;
52764;SDS011;38650;44.536;18.664;2024-03-08T03:31:42;15.30;;;13.57;;
52764;SDS011;38650;44.536;18.664;2024-03-08T03:34:11;14.30;;;12.80;;
52764;SDS011;38650;44.536;18.664;2024-03-08T03:36:37;16.65;;;13.30;;
52764;SDS011;38650;44.536;18.664;2024-03-08T03:39:07;24.27;;;18.73;;
52764;SDS011;38650;44.536;18.664;2024-03-08T03:41:38;17.35;;;14.90;;
52764;SDS011;38650;44.536;18.664;2024-03-08T03:44:04;15.85;;;14.07;;
52764;SDS011;38650;44.536;18.664;2024-03-08T03:46:33;16.88;;;15.10;;
52764;SDS011;38650;44.536;18.664;2024-03-08T03:48:59;14.02;;;12.63;;
52764;SDS011;38650;44.536;18.664;2024-03-08T03:51:24;13.68;;;12.27;;
52764;SDS011;38650;44.536;18.664;2024-03-08T03:53:51;13.40;;;12.05;;
52764;SDS011;38650;44.536;18.664;2024-03-08T03:56:17;11.93;;;10.73;;
52764;SDS011;38650;44.536;18.664;2024-03-08T03:58:44;14.13;;;12.63;;
52764;SDS011;38650;44.536;18.664;2024-03-08T04:01:09;12.23;;;11.02;;
52764;SDS011;38650;44.536;18.664;2024-03-08T04:03:35;13.57;;;12.15;;
52764;SDS011;38650;44.536;18.664;2024-03-08T04:06:02;14.85;;;13.35;;
52764;SDS011;38650;44.536;18.664;2024-03-08T04:08:31;16.98;;;15.27;;
52764;SDS011;38650;44.536;18.664;2024-03-08T04:10:59;16.52;;;14.82;;
52764;SDS011;38650;44.536;18.664;2024-03-08T04:13:25;22.05;;;19.30;;
52764;SDS011;38650;44.536;18.664;2024-03-08T04:15:51;21.88;;;19.58;;
52764;SDS011;38650;44.536;18.664;2024-03-08T04:18:17;24.45;;;21.75;;
52764;SDS011;38650;44.536;18.664;2024-03-08T04:20:44;26.85;;;24.00;;
52764;SDS011;38650;44.536;18.664;2024-03-08T04:23:10;32.13;;;28.73;;
52764;SDS011;38650;44.536;18.664;2024-03-08T04:25:36;31.88;;;28.67;;
52764;SDS011;38650;44.536;18.664;2024-03-08T04:28:01;25.40;;;22.80;;
52764;SDS011;38650;44.536;18.664;2024-03-08T04:30:27;22.80;;;20.58;;
52764;SDS011;38650;44.536;18.664;2024-03-08T04:32:53;20.90;;;18.75;;
52764;SDS011;38650;44.536;18.664;2024-03-08T04:35:19;18.52;;;16.63;;
52764;SDS011;38650;44.536;18.664;2024-03-08T04:37:45;16.35;;;14.65;;
52764;SDS011;38650;44.536;18.664;2024-03-08T04:40:11;15.15;;;13.60;;
52764;SDS011;38650;44.536;18.664;2024-03-08T04:42:37;16.67;;;14.90;;
52764;SDS011;38650;44.536;18.664;2024-03-08T04:45:04;16.67;;;15.05;;
52764;SDS011;38650;44.536;18.664;2024-03-08T04:47:30;16.75;;;14.98;;
52764;SDS011;38650;44.536;18.664;2024-03-08T04:49:56;18.10;;;16.20;;
52764;SDS011;38650;44.536;18.664;2024-03-08T04:52:23;18.63;;;16.80;;
52764;SDS011;38650;44.536;18.664;2024-03-08T04:54:49;18.85;;;17.00;;
52764;SDS011;38650;44.536;18.664;2024-03-08T04:57:14;19.35;;;17.42;;
52764;SDS011;38650;44.536;18.664;2024-03-08T04:59:42;15.13;;;13.63;;
52764;SDS011;38650;44.536;18.664;2024-03-08T05:02:08;14.07;;;12.68;;
52764;SDS011;38650;44.536;18.664;2024-03-08T05:04:33;13.00;;;11.70;;
52764;SDS011;38650;44.536;18.664;2024-03-08T05:07:00;13.02;;;11.50;;
52764;SDS011;38650;44.536;18.664;2024-03-08T05:09:29;12.55;;;11.30;;
52764;SDS011;38650;44.536;18.664;2024-03-08T05:11:56;12.40;;;10.32;;
52764;SDS011;38650;44.536;18.664;2024-03-08T05:14:24;18.42;;;16.38;;
52764;SDS011;38650;44.536;18.664;2024-03-08T05:16:50;26.50;;;23.48;;
52764;SDS011;38650;44.536;18.664;2024-03-08T05:19:16;24.67;;;22.08;;
52764;SDS011;38650;44.536;18.664;2024-03-08T05:21:45;26.35;;;23.23;;
52764;SDS011;38650;44.536;18.664;2024-03-08T05:24:12;26.92;;;22.63;;
52764;SDS011;38650;44.536;18.664;2024-03-08T05:26:39;39.45;;;30.20;;
52764;SDS011;38650;44.536;18.664;2024-03-08T05:29:05;26.05;;;22.17;;
52764;SDS011;38650;44.536;18.664;2024-03-08T05:31:35;30.85;;;24.58;;
52764;SDS011;38650;44.536;18.664;2024-03-08T05:34:13;28.35;;;25.30;;
52764;SDS011;38650;44.536;18.664;2024-03-08T05:36:40;25.98;;;22.58;;
52764;SDS011;38650;44.536;18.664;2024-03-08T05:39:09;21.40;;;19.25;;
52764;SDS011;38650;44.536;18.664;2024-03-08T05:41:38;25.70;;;22.98;;
52764;SDS011;38650;44.536;18.664;2024-03-08T05:44:05;27.80;;;24.92;;
52764;SDS011;38650;44.536;18.664;2024-03-08T05:46:31;23.73;;;21.23;;
52764;SDS011;38650;44.536;18.664;2024-03-08T05:48:57;24.73;;;22.13;;
52764;SDS011;38650;44.536;18.664;2024-03-08T05:51:24;23.15;;;20.65;;
52764;SDS011;38650;44.536;18.664;2024-03-08T05:53:52;23.17;;;20.77;;
52764;SDS011;38650;44.536;18.664;2024-03-08T05:56:18;20.95;;;18.85;;
52764;SDS011;38650;44.536;18.664;2024-03-08T05:58:45;19.05;;;17.13;;
52764;SDS011;38650;44.536;18.664;2024-03-08T06:01:11;19.15;;;17.23;;
52764;SDS011;38650;44.536;18.664;2024-03-08T06:03:38;19.70;;;17.67;;
52764;SDS011;38650;44.536;18.664;2024-03-08T06:06:13;20.15;;;18.05;;
52764;SDS011;38650;44.536;18.664;2024-03-08T06:08:39;20.23;;;18.00;;
52764;SDS011;38650;44.536;18.664;2024-03-08T06:11:05;19.58;;;17.48;;
52764;SDS011;38650;44.536;18.664;2024-03-08T06:13:34;19.35;;;17.35;;
52764;SDS011;38650;44.536;18.664;2024-03-08T06:16:00;20.75;;;18.25;;
52764;SDS011;38650;44.536;18.664;2024-03-08T06:18:30;19.80;;;17.70;;
52764;SDS011;38650;44.536;18.664;2024-03-08T06:20:56;16.98;;;15.18;;
52764;SDS011;38650;44.536;18.664;2024-03-08T06:23:22;14.98;;;13.48;;
52764;SDS011;38650;44.536;18.664;2024-03-08T06:25:48;17.92;;;15.98;;
52764;SDS011;38650;44.536;18.664;2024-03-08T06:28:14;22.33;;;19.92;;
52764;SDS011;38650;44.536;18.664;2024-03-08T06:30:40;18.13;;;15.80;;
52764;SDS011;38650;44.536;18.664;2024-03-08T06:33:06;17.65;;;15.80;;
52764;SDS011;38650;44.536;18.664;2024-03-08T06:35:35;16.17;;;14.48;;
52764;SDS011;38650;44.536;18.664;2024-03-08T06:38:03;15.45;;;13.68;;
52764;SDS011;38650;44.536;18.664;2024-03-08T06:40:29;17.95;;;15.15;;
52764;SDS011;38650;44.536;18.664;2024-03-08T06:42:55;18.05;;;14.73;;
52764;SDS011;38650;44.536;18.664;2024-03-08T06:45:21;19.50;;;16.20;;
52764;SDS011;38650;44.536;18.664;2024-03-08T06:47:48;16.63;;;14.63;;
52764;SDS011;38650;44.536;18.664;2024-03-08T06:50:14;15.05;;;13.32;;
52764;SDS011;38650;44.536;18.664;2024-03-08T06:52:40;13.25;;;11.55;;
52764;SDS011;38650;44.536;18.664;2024-03-08T06:55:11;11.05;;;9.95;;
52764;SDS011;38650;44.536;18.664;2024-03-08T06:57:40;12.38;;;11.20;;
52764;SDS011;38650;44.536;18.664;2024-03-08T07:00:07;11.07;;;9.98;;
52764;SDS011;38650;44.536;18.664;2024-03-08T07:02:43;12.00;;;10.80;;
52764;SDS011;38650;44.536;18.664;2024-03-08T07:05:13;14.80;;;13.40;;
52764;SDS011;38650;44.536;18.664;2024-03-08T07:07:39;15.57;;;13.90;;
52764;SDS011;38650;44.536;18.664;2024-03-08T07:10:06;12.23;;;11.00;;
52764;SDS011;38650;44.536;18.664;2024-03-08T07:12:36;11.48;;;10.38;;
52764;SDS011;38650;44.536;18.664;2024-03-08T07:15:05;13.20;;;11.90;;
52764;SDS011;38650;44.536;18.664;2024-03-08T07:17:32;13.10;;;11.80;;
52764;SDS011;38650;44.536;18.664;2024-03-08T07:20:00;19.17;;;17.17;;
52764;SDS011;38650;44.536;18.664;2024-03-08T07:22:36;18.38;;;16.42;;
52764;SDS011;38650;44.536;18.664;2024-03-08T07:25:02;16.13;;;14.35;;
52764;SDS011;38650;44.536;18.664;2024-03-08T07:27:55;15.85;;;14.23;;
52764;SDS011;38650;44.536;18.664;2024-03-08T07:30:22;16.60;;;14.90;;
52764;SDS011;38650;44.536;18.664;2024-03-08T07:33:10;14.32;;;12.95;;
52764;SDS011;38650;44.536;18.664;2024-03-08T07:35:40;12.90;;;11.60;;
52764;SDS011;38650;44.536;18.664;2024-03-08T07:38:12;12.63;;;11.32;;
52764;SDS011;38650;44.536;18.664;2024-03-08T07:40:38;11.40;;;10.38;;
52764;SDS011;38650;44.536;18.664;2024-03-08T07:43:08;11.45;;;10.30;;
52764;SDS011;38650;44.536;18.664;2024-03-08T07:45:35;10.70;;;9.73;;
52764;SDS011;38650;44.536;18.664;2024-03-08T07:48:04;10.18;;;9.27;;
52764;SDS011;38650;44.536;18.664;2024-03-08T07:50:36;10.77;;;9.68;;
52764;SDS011;38650;44.536;18.664;2024-03-08T07:53:04;10.38;;;9.38;;
52764;SDS011;38650;44.536;18.664;2024-03-08T07:55:31;11.38;;;10.27;;
52764;SDS011;38650;44.536;18.664;2024-03-08T07:57:58;11.55;;;10.45;;
52764;SDS011;38650;44.536;18.664;2024-03-08T08:00:24;12.10;;;10.80;;
52764;SDS011;38650;44.536;18.664;2024-03-08T08:02:52;11.57;;;10.48;;
52764;SDS011;38650;44.536;18.664;2024-03-08T08:05:18;10.90;;;9.90;;
52764;SDS011;38650;44.536;18.664;2024-03-08T08:07:44;15.07;;;13.57;;
52764;SDS011;38650;44.536;18.664;2024-03-08T08:10:11;15.68;;;13.98;;
52764;SDS011;38650;44.536;18.664;2024-03-08T08:12:43;17.90;;;15.00;;
52764;SDS011;38650;44.536;18.664;2024-03-08T08:15:09;14.93;;;13.50;;
52764;SDS011;38650;44.536;18.664;2024-03-08T08:17:35;14.68;;;13.18;;
52764;SDS011;38650;44.536;18.664;2024-03-08T08:20:01;13.00;;;11.70;;
52764;SDS011;38650;44.536;18.664;2024-03-08T08:22:30;11.65;;;10.55;;
52764;SDS011;38650;44.536;18.664;2024-03-08T08:24:56;13.20;;;11.90;;
52764;SDS011;38650;44.536;18.664;2024-03-08T08:27:21;12.43;;;11.30;;
52764;SDS011;38650;44.536;18.664;2024-03-08T08:29:47;14.68;;;13.23;;
52764;SDS011;38650;44.536;18.664;2024-03-08T08:32:14;17.98;;;16.17;;
52764;SDS011;38650;44.536;18.664;2024-03-08T08:34:40;15.88;;;14.38;;
52764;SDS011;38650;44.536;18.664;2024-03-08T08:37:07;14.40;;;12.95;;
52764;SDS011;38650;44.536;18.664;2024-03-08T08:39:34;13.95;;;12.63;;
52764;SDS011;38650;44.536;18.664;2024-03-08T08:42:00;11.07;;;9.98;;
52764;SDS011;38650;44.536;18.664;2024-03-08T08:44:30;13.50;;;12.10;;
52764;SDS011;38650;44.536;18.664;2024-03-08T08:47:00;12.18;;;10.85;;
52764;SDS011;38650;44.536;18.664;2024-03-08T08:49:26;10.50;;;9.50;;
52764;SDS011;38650;44.536;18.664;2024-03-08T08:51:52;10.48;;;9.48;;
52764;SDS011;38650;44.536;18.664;2024-03-08T08:54:20;10.25;;;9.35;;
52764;SDS011;38650;44.536;18.664;2024-03-08T08:56:47;12.80;;;11.60;;
52764;SDS011;38650;44.536;18.664;2024-03-08T08:59:12;12.27;;;10.98;;
52764;SDS011;38650;44.536;18.664;2024-03-08T09:01:44;12.65;;;11.45;;
52764;SDS011;38650;44.536;18.664;2024-03-08T09:04:12;13.27;;;11.98;;
52764;SDS011;38650;44.536;18.664;2024-03-08T09:06:38;12.20;;;11.00;;
52764;SDS011;38650;44.536;18.664;2024-03-08T09:09:07;13.85;;;12.40;;
52764;SDS011;38650;44.536;18.664;2024-03-08T09:11:38;9.55;;;8.75;;
52764;SDS011;38650;44.536;18.664;2024-03-08T09:14:07;11.93;;;10.82;;
52764;SDS011;38650;44.536;18.664;2024-03-08T09:16:34;10.05;;;9.15;;
52764;SDS011;38650;44.536;18.664;2024-03-08T09:18:59;9.43;;;8.52;;
52764;SDS011;38650;44.536;18.664;2024-03-08T09:21:25;8.70;;;8.00;;
52764;SDS011;38650;44.536;18.664;2024-03-08T09:23:52;9.85;;;8.95;;
52764;SDS011;38650;44.536;18.664;2024-03-08T09:26:18;9.07;;;8.18;;
52764;SDS011;38650;44.536;18.664;2024-03-08T09:28:44;8.68;;;7.95;;
52764;SDS011;38650;44.536;18.664;2024-03-08T09:31:11;8.27;;;7.57;;
52764;SDS011;38650;44.536;18.664;2024-03-08T09:33:37;8.20;;;7.47;;
52764;SDS011;38650;44.536;18.664;2024-03-08T09:36:04;8.40;;;7.70;;
52764;SDS011;38650;44.536;18.664;2024-03-08T09:38:32;9.20;;;8.35;;
52764;SDS011;38650;44.536;18.664;2024-03-08T09:40:59;7.57;;;6.95;;
52764;SDS011;38650;44.536;18.664;2024-03-08T09:43:27;7.50;;;6.90;;
52764;SDS011;38650;44.536;18.664;2024-03-08T09:45:53;7.68;;;6.88;;
52764;SDS011;38650;44.536;18.664;2024-03-08T09:48:20;7.20;;;6.15;;
52764;SDS011;38650;44.536;18.664;2024-03-08T09:50:48;7.10;;;6.50;;
52764;SDS011;38650;44.536;18.664;2024-03-08T09:53:14;7.50;;;6.80;;
52764;SDS011;38650;44.536;18.664;2024-03-08T09:55:40;7.05;;;6.45;;
52764;SDS011;38650;44.536;18.664;2024-03-08T09:58:10;8.02;;;7.30;;
52764;SDS011;38650;44.536;18.664;2024-03-08T10:00:49;8.48;;;7.68;;
52764;SDS011;38650;44.536;18.664;2024-03-08T10:03:15;8.98;;;8.18;;
52764;SDS011;38650;44.536;18.664;2024-03-08T10:05:41;7.60;;;6.90;;
52764;SDS011;38650;44.536;18.664;2024-03-08T10:08:08;7.57;;;6.97;;
52764;SDS011;38650;44.536;18.664;2024-03-08T10:10:34;7.15;;;6.55;;
52764;SDS011;38650;44.536;18.664;2024-03-08T10:13:00;7.78;;;7.13;;
52764;SDS011;38650;44.536;18.664;2024-03-08T10:15:27;8.80;;;8.00;;
52764;SDS011;38650;44.536;18.664;2024-03-08T10:17:58;7.57;;;6.88;;
52764;SDS011;38650;44.536;18.664;2024-03-08T10:20:27;8.27;;;7.57;;
52764;SDS011;38650;44.536;18.664;2024-03-08T10:23:03;7.85;;;7.15;;
52764;SDS011;38650;44.536;18.664;2024-03-08T10:25:33;8.88;;;8.07;;
52764;SDS011;38650;44.536;18.664;2024-03-08T10:27:59;7.65;;;7.05;;
52764;SDS011;38650;44.536;18.664;2024-03-08T10:30:29;9.35;;;8.45;;
52764;SDS011;38650;44.536;18.664;2024-03-08T10:32:54;8.85;;;8.05;;
52764;SDS011;38650;44.536;18.664;2024-03-08T10:35:21;9.02;;;8.15;;
52764;SDS011;38650;44.536;18.664;2024-03-08T10:37:49;8.45;;;7.65;;
52764;SDS011;38650;44.536;18.664;2024-03-08T10:40:24;8.05;;;7.35;;
52764;SDS011;38650;44.536;18.664;2024-03-08T10:42:54;7.28;;;6.70;;
52764;SDS011;38650;44.536;18.664;2024-03-08T10:48:04;8.48;;;7.78;;
52764;SDS011;38650;44.536;18.664;2024-03-08T10:50:40;8.13;;;7.32;;
52764;SDS011;38650;44.536;18.664;2024-03-08T10:53:13;8.30;;;7.60;;
52764;SDS011;38650;44.536;18.664;2024-03-08T10:55:46;7.45;;;6.75;;
52764;SDS011;38650;44.536;18.664;2024-03-08T10:58:14;6.97;;;6.35;;
52764;SDS011;38650;44.536;18.664;2024-03-08T11:00:42;8.15;;;7.45;;
52764;SDS011;38650;44.536;18.664;2024-03-08T11:03:14;6.13;;;5.55;;
52764;SDS011;38650;44.536;18.664;2024-03-08T11:06:43;6.18;;;5.57;;
52764;SDS011;38650;44.536;18.664;2024-03-08T11:09:02;9.13;;;8.23;;
52764;SDS011;38650;44.536;18.664;2024-03-08T11:11:29;8.77;;;8.07;;
52764;SDS011;38650;44.536;18.664;2024-03-08T11:13:56;7.10;;;6.43;;
52764;SDS011;38650;44.536;18.664;2024-03-08T11:19:05;7.90;;;7.20;;
52764;SDS011;38650;44.536;18.664;2024-03-08T11:21:56;7.38;;;6.78;;
52764;SDS011;38650;44.536;18.664;2024-03-08T11:24:27;6.57;;;5.97;;
52764;SDS011;38650;44.536;18.664;2024-03-08T11:26:56;5.90;;;5.40;;
52764;SDS011;38650;44.536;18.664;2024-03-08T11:32:06;8.55;;;7.75;;
52764;SDS011;38650;44.536;18.664;2024-03-08T11:34:35;7.45;;;6.80;;
52764;SDS011;38650;44.536;18.664;2024-03-08T11:37:05;6.25;;;5.75;;
52764;SDS011;38650;44.536;18.664;2024-03-08T11:39:46;6.03;;;5.53;;
52764;SDS011;38650;44.536;18.664;2024-03-08T11:42:16;7.05;;;6.45;;
52764;SDS011;38650;44.536;18.664;2024-03-08T11:44:43;6.88;;;6.18;;
52764;SDS011;38650;44.536;18.664;2024-03-08T11:47:10;5.80;;;5.30;;
52764;SDS011;38650;44.536;18.664;2024-03-08T11:49:36;6.30;;;5.70;;
52764;SDS011;38650;44.536;18.664;2024-03-08T11:52:03;5.45;;;5.03;;
52764;SDS011;38650;44.536;18.664;2024-03-08T11:54:29;6.82;;;6.32;;
52764;SDS011;38650;44.536;18.664;2024-03-08T11:56:56;8.05;;;7.35;;
52764;SDS011;38650;44.536;18.664;2024-03-08T11:59:26;7.47;;;6.78;;
52764;SDS011;38650;44.536;18.664;2024-03-08T12:01:59;10.23;;;9.20;;
52764;SDS011;38650;44.536;18.664;2024-03-08T12:04:27;7.47;;;6.78;;
52764;SDS011;38650;44.536;18.664;2024-03-08T12:06:57;7.57;;;6.82;;
52764;SDS011;38650;44.536;18.664;2024-03-08T12:09:33;6.82;;;6.22;;
52764;SDS011;38650;44.536;18.664;2024-03-08T12:12:01;7.97;;;7.28;;
52764;SDS011;38650;44.536;18.664;2024-03-08T12:14:30;8.35;;;7.60;;
52764;SDS011;38650;44.536;18.664;2024-03-08T12:16:57;10.50;;;9.50;;
52764;SDS011;38650;44.536;18.664;2024-03-08T12:19:23;9.88;;;8.90;;
52764;SDS011;38650;44.536;18.664;2024-03-08T12:21:49;9.77;;;8.88;;
52764;SDS011;38650;44.536;18.664;2024-03-08T12:24:15;9.70;;;8.80;;
52764;SDS011;38650;44.536;18.664;2024-03-08T12:26:45;8.57;;;7.78;;
52764;SDS011;38650;44.536;18.664;2024-03-08T12:31:52;8.25;;;7.55;;
52764;SDS011;38650;44.536;18.664;2024-03-08T12:34:23;7.72;;;7.13;;
52764;SDS011;38650;44.536;18.664;2024-03-08T12:36:49;8.07;;;7.43;;
52764;SDS011;38650;44.536;18.664;2024-03-08T12:39:18;7.55;;;6.95;;
52764;SDS011;38650;44.536;18.664;2024-03-08T12:41:51;8.80;;;7.90;;
52764;SDS011;38650;44.536;18.664;2024-03-08T12:44:22;7.60;;;6.95;;
52764;SDS011;38650;44.536;18.664;2024-03-08T12:46:47;9.25;;;8.38;;
52764;SDS011;38650;44.536;18.664;2024-03-08T12:49:14;8.48;;;7.78;;
52764;SDS011;38650;44.536;18.664;2024-03-08T12:51:43;8.70;;;7.95;;
52764;SDS011;38650;44.536;18.664;2024-03-08T12:54:09;7.82;;;7.20;;
52764;SDS011;38650;44.536;18.664;2024-03-08T12:56:35;7.88;;;7.18;;
52764;SDS011;38650;44.536;18.664;2024-03-08T12:59:03;7.72;;;7.03;;
52764;SDS011;38650;44.536;18.664;2024-03-08T13:01:33;9.20;;;8.30;;
52764;SDS011;38650;44.536;18.664;2024-03-08T13:04:02;9.20;;;8.40;;
52764;SDS011;38650;44.536;18.664;2024-03-08T13:06:28;7.90;;;7.20;;
52764;SDS011;38650;44.536;18.664;2024-03-08T13:08:56;7.82;;;7.22;;
52764;SDS011;38650;44.536;18.664;2024-03-08T13:11:23;7.80;;;7.10;;
52764;SDS011;38650;44.536;18.664;2024-03-08T13:13:49;6.93;;;6.40;;
52764;SDS011;38650;44.536;18.664;2024-03-08T13:16:15;7.35;;;6.75;;
52764;SDS011;38650;44.536;18.664;2024-03-08T13:18:42;7.03;;;6.43;;
52764;SDS011;38650;44.536;18.664;2024-03-08T13:21:08;7.82;;;7.22;;
52764;SDS011;38650;44.536;18.664;2024-03-08T13:23:39;8.20;;;7.50;;
52764;SDS011;38650;44.536;18.664;2024-03-08T13:26:06;6.20;;;5.70;;
52764;SDS011;38650;44.536;18.664;2024-03-08T13:28:32;5.75;;;5.28;;
52764;SDS011;38650;44.536;18.664;2024-03-08T13:31:05;7.50;;;6.90;;
52764;SDS011;38650;44.536;18.664;2024-03-08T13:33:35;7.32;;;6.63;;
52764;SDS011;38650;44.536;18.664;2024-03-08T13:36:02;6.82;;;6.28;;
52764;SDS011;38650;44.536;18.664;2024-03-08T13:38:29;6.68;;;5.97;;
52764;SDS011;38650;44.536;18.664;2024-03-08T13:40:57;5.55;;;5.15;;
52764;SDS011;38650;44.536;18.664;2024-03-08T13:43:27;5.82;;;5.32;;
52764;SDS011;38650;44.536;18.664;2024-03-08T13:45:53;6.05;;;5.55;;
52764;SDS011;38650;44.536;18.664;2024-03-08T13:48:20;5.22;;;4.80;;
52764;SDS011;38650;44.536;18.664;2024-03-08T13:50:47;5.93;;;5.43;;
52764;SDS011;38650;44.536;18.664;2024-03-08T13:53:14;5.72;;;5.30;;
52764;SDS011;38650;44.536;18.664;2024-03-08T13:55:40;5.55;;;5.18;;
52764;SDS011;38650;44.536;18.664;2024-03-08T13:58:06;5.10;;;4.70;;
52764;SDS011;38650;44.536;18.664;2024-03-08T14:00:34;5.28;;;4.88;;
52764;SDS011;38650;44.536;18.664;2024-03-08T14:03:06;5.53;;;5.03;;
52764;SDS011;38650;44.536;18.664;2024-03-08T14:05:32;5.22;;;4.82;;
52764;SDS011;38650;44.536;18.664;2024-03-08T14:08:03;4.80;;;4.50;;
52764;SDS011;38650;44.536;18.664;2024-03-08T14:10:29;5.97;;;5.15;;
52764;SDS011;38650;44.536;18.664;2024-03-08T14:12:56;5.32;;;4.82;;
52764;SDS011;38650;44.536;18.664;2024-03-08T14:15:22;5.38;;;4.97;;
52764;SDS011;38650;44.536;18.664;2024-03-08T14:17:55;4.90;;;4.50;;
52764;SDS011;38650;44.536;18.664;2024-03-08T14:20:22;4.70;;;4.40;;
52764;SDS011;38650;44.536;18.664;2024-03-08T14:22:53;4.57;;;4.28;;
52764;SDS011;38650;44.536;18.664;2024-03-08T14:25:20;6.32;;;5.88;;
52764;SDS011;38650;44.536;18.664;2024-03-08T14:27:48;4.95;;;4.65;;
52764;SDS011;38650;44.536;18.664;2024-03-08T14:30:15;4.88;;;4.50;;
52764;SDS011;38650;44.536;18.664;2024-03-08T14:32:57;4.38;;;4.07;;